createdAt,value
2023-04-26T00:01:18.096Z,101216.03
2023-04-26T00:03:44.633Z,101219.66
2023-04-26T00:06:13.987Z,101223.41
2023-04-26T00:08:42.182Z,101231.69
2023-04-26T00:11:08.554Z,101226.59
2023-04-26T00:13:35.028Z,101231.28
2023-04-26T00:16:01.544Z,101231.53
2023-04-26T00:18:28.234Z,101231.03
2023-04-26T00:20:54.677Z,101232.97
2023-04-26T00:23:21.084Z,101234.09
2023-04-26T00:25:47.511Z,101235.28
2023-04-26T00:28:13.906Z,101244.50
2023-04-26T00:30:42.098Z,101239.63
2023-04-26T00:33:09.330Z,101245.38
2023-04-26T00:35:35.716Z,101235.19
2023-04-26T00:38:02.080Z,101242.56
2023-04-26T00:40:28.528Z,101236.81
2023-04-26T00:42:58.346Z,101233.69
2023-04-26T00:45:24.716Z,101234.84
2023-04-26T00:47:51.280Z,101235.31
2023-04-26T00:50:17.944Z,101230.22
2023-04-26T00:52:47.116Z,101225.97
2023-04-26T00:55:18.622Z,101227.97
2023-04-26T00:57:45.765Z,101237.09
2023-04-26T01:00:12.744Z,101231.97
2023-04-26T01:02:39.366Z,101232.19
2023-04-26T01:05:06.931Z,101235.09
2023-04-26T01:07:33.478Z,101230.84
2023-04-26T01:10:04.859Z,101239.81
2023-04-26T01:12:32.151Z,101234.81
2023-04-26T01:14:59.902Z,101234.81
2023-04-26T01:17:26.441Z,101242.09
2023-04-26T01:19:52.840Z,101240.38
2023-04-26T01:22:19.240Z,101236.09
2023-04-26T01:24:50.063Z,101236.09
2023-04-26T01:27:16.801Z,101237.72
2023-04-26T01:29:43.420Z,101245.47
2023-04-26T01:32:09.800Z,101254.09
2023-04-26T01:34:37.210Z,101250.50
2023-04-26T01:37:03.681Z,101251.34
2023-04-26T01:39:30.254Z,101262.09
2023-04-26T01:41:58.471Z,101257.84
2023-04-26T01:44:24.834Z,101262.22
2023-04-26T01:46:51.821Z,101254.22
2023-04-26T01:49:18.238Z,101257.75
2023-04-26T01:51:46.785Z,101265.97
2023-04-26T01:54:13.254Z,101257.97
2023-04-26T01:56:40.001Z,101257.13
2023-04-26T01:59:06.548Z,101258.09
2023-04-26T02:01:32.970Z,101252.00
2023-04-26T02:03:59.409Z,101260.13
2023-04-26T02:06:26.497Z,101262.06
2023-04-26T02:08:54.241Z,101259.63
2023-04-26T02:11:21.148Z,101265.13
2023-04-26T02:13:47.643Z,101267.19
2023-04-26T02:16:16.407Z,101268.34
2023-04-26T02:18:42.828Z,101270.28
2023-04-26T02:21:11.651Z,101286.41
2023-04-26T02:23:38.028Z,101283.00
2023-04-26T02:26:04.715Z,101280.44
2023-04-26T02:28:31.483Z,101282.34
2023-04-26T02:30:58.412Z,101277.97
2023-04-26T02:33:24.804Z,101276.28
2023-04-26T02:35:51.405Z,101278.09
2023-04-26T02:38:18.798Z,101272.88
2023-04-26T02:40:45.424Z,101274.69
2023-04-26T02:43:12.760Z,101275.75
2023-04-26T02:45:43.273Z,101268.94
2023-04-26T02:48:11.693Z,101268.81
2023-04-26T02:50:38.649Z,101266.81
2023-04-26T02:53:05.551Z,101267.53
2023-04-26T02:55:32.227Z,101267.31
2023-04-26T02:57:58.726Z,101265.50
2023-04-26T03:00:25.429Z,101259.94
2023-04-26T03:02:52.073Z,101259.84
2023-04-26T03:05:19.922Z,101264.31
2023-04-26T03:07:46.437Z,101263.47
2023-04-26T03:10:17.082Z,101264.44
2023-04-26T03:12:43.866Z,101261.00
2023-04-26T03:15:10.631Z,101260.28
2023-04-26T03:17:39.151Z,101270.94
2023-04-26T03:20:07.085Z,101260.16
2023-04-26T03:22:34.026Z,101265.59
2023-04-26T03:25:01.174Z,101265.72
2023-04-26T03:27:28.536Z,101259.66
2023-04-26T03:29:55.452Z,101264.88
2023-04-26T03:32:21.954Z,101262.41
2023-04-26T03:34:49.767Z,101276.69
2023-04-26T03:37:16.250Z,101268.09
2023-04-26T03:39:45.066Z,101269.16
2023-04-26T03:42:11.443Z,101271.91
2023-04-26T03:44:38.373Z,101270.31
2023-04-26T03:47:05.456Z,101274.81
2023-04-26T03:49:32.309Z,101266.06
2023-04-26T03:52:02.387Z,101270.63
2023-04-26T03:54:29.432Z,101268.94
2023-04-26T03:56:55.850Z,101274.38
2023-04-26T03:59:22.349Z,101278.00
2023-04-26T04:01:48.829Z,101275.34
2023-04-26T04:04:15.685Z,101267.34
2023-04-26T04:06:43.202Z,101270.13
2023-04-26T04:09:09.589Z,101275.69
2023-04-26T04:11:35.995Z,101272.78
2023-04-26T04:14:02.898Z,101274.38
2023-04-26T04:16:29.380Z,101272.38
2023-04-26T04:18:56.003Z,101278.44
2023-04-26T04:21:22.409Z,101272.03
2023-04-26T04:23:50.057Z,101281.63
2023-04-26T04:26:17.423Z,101278.88
2023-04-26T04:28:45.443Z,101286.88
2023-04-26T04:31:12.917Z,101287.81
2023-04-26T04:33:39.437Z,101286.94
2023-04-26T04:36:07.185Z,101290.50
2023-04-26T04:38:33.645Z,101293.16
2023-04-26T04:41:00.073Z,101291.44
2023-04-26T04:43:27.910Z,101298.56
2023-04-26T04:45:54.333Z,101306.69
2023-04-26T04:48:21.295Z,101315.66
2023-04-26T04:50:49.408Z,101307.66
2023-04-26T04:53:16.045Z,101315.66
2023-04-26T04:55:42.453Z,101315.78
2023-04-26T04:58:10.812Z,101310.56
2023-04-26T05:00:37.964Z,101307.88
2023-04-26T05:03:34.012Z,101310.63
2023-04-26T05:06:02.565Z,101309.91
2023-04-26T05:08:28.986Z,101310.84
2023-04-26T05:10:59.141Z,101304.66
2023-04-26T05:13:25.664Z,101299.44
2023-04-26T05:15:52.146Z,101303.09
2023-04-26T05:18:18.593Z,101301.38
2023-04-26T05:20:44.964Z,101297.88
2023-04-26T05:23:11.421Z,101303.28
2023-04-26T05:25:38.025Z,101294.53
2023-04-26T05:28:21.942Z,101299.25
2023-04-26T05:31:02.561Z,101297.31
2023-04-26T05:33:46.528Z,101308.59
2023-04-26T05:36:19.414Z,101312.13
2023-04-26T05:38:45.777Z,101313.63
2023-04-26T05:41:12.158Z,101318.84
2023-04-26T05:43:38.658Z,101318.97
2023-04-26T05:46:05.550Z,101310.13
2023-04-26T05:48:32.029Z,101318.00
2023-04-26T05:50:58.380Z,101318.75
2023-04-26T05:53:24.747Z,101332.19
2023-04-26T05:55:51.638Z,101334.00
2023-04-26T05:58:18.085Z,101331.34
2023-04-26T06:00:45.418Z,101316.41
2023-04-26T06:03:12.761Z,101325.16
2023-04-26T06:05:39.501Z,101323.44
2023-04-26T06:08:06.108Z,101320.78
2023-04-26T06:10:32.719Z,101315.44
2023-04-26T06:12:59.375Z,101317.25
2023-04-26T06:15:27.812Z,101311.19
2023-04-26T06:17:55.015Z,101321.09
2023-04-26T06:20:21.848Z,101316.59
2023-04-26T06:22:48.276Z,101319.38
2023-04-26T06:25:15.282Z,101315.88
2023-04-26T06:27:41.861Z,101315.00
2023-04-26T06:30:10.018Z,101314.28
2023-04-26T06:32:43.119Z,101317.13
2023-04-26T06:35:09.938Z,101318.09
2023-04-26T06:37:37.586Z,101319.91
2023-04-26T06:40:04.857Z,101328.75
2023-04-26T06:42:31.414Z,101318.22
2023-04-26T06:45:22.481Z,101322.81
2023-04-26T06:47:51.542Z,101327.41
2023-04-26T06:50:18.231Z,101330.06
2023-04-26T06:52:44.622Z,101326.31
2023-04-26T06:55:11.059Z,101316.50
2023-04-26T06:57:37.447Z,101321.63
2023-04-26T07:00:04.591Z,101318.88
2023-04-26T07:02:31.523Z,101325.91
2023-04-26T07:04:58.289Z,101325.78
2023-04-26T07:07:24.806Z,101330.16
2023-04-26T07:09:52.792Z,101326.66
2023-04-26T07:12:19.213Z,101325.78
2023-04-26T07:14:45.817Z,101333.78
2023-04-26T07:17:12.273Z,101329.41
2023-04-26T07:19:38.712Z,101332.19
2023-04-26T07:22:08.948Z,101331.34
2023-04-26T07:24:35.390Z,101330.56
2023-04-26T07:27:01.981Z,101329.72
2023-04-26T07:29:28.554Z,101332.63
2023-04-26T07:31:55.711Z,101339.09
2023-04-26T07:34:22.060Z,101337.38
2023-04-26T07:36:48.438Z,101342.84
2023-04-26T07:39:15.392Z,101340.28
2023-04-26T07:41:43.844Z,101339.44
2023-04-26T07:44:11.113Z,101338.66
2023-04-26T07:46:37.489Z,101341.41
2023-04-26T07:49:04.179Z,101343.22
2023-04-26T07:51:30.639Z,101346.66
2023-04-26T07:53:57.065Z,101338.66
2023-04-26T07:56:24.264Z,101338.56
2023-04-26T07:58:50.834Z,101343.78
2023-04-26T08:01:17.214Z,101341.25
2023-04-26T08:03:43.689Z,101347.53
2023-04-26T08:06:10.584Z,101362.44
2023-04-26T08:08:42.818Z,101397.84
2023-04-26T08:11:10.069Z,101395.00
2023-04-26T08:13:36.690Z,101395.00
2023-04-26T08:16:03.135Z,101395.72
2023-04-26T08:18:29.549Z,101389.31
2023-04-26T08:20:55.886Z,101390.00
2023-04-26T08:23:22.826Z,101386.38
2023-04-26T08:25:49.789Z,101384.44
2023-04-26T08:28:16.349Z,101393.28
2023-04-26T08:30:43.570Z,101389.66
2023-04-26T08:33:10.384Z,101387.84
2023-04-26T08:35:36.914Z,101383.38
2023-04-26T08:38:03.344Z,101386.03
2023-04-26T08:40:29.934Z,101389.66
2023-04-26T08:42:56.345Z,101387.84
2023-04-26T08:45:23.368Z,101390.41
2023-04-26T08:47:51.672Z,101386.03
2023-04-26T08:50:23.151Z,101393.06
2023-04-26T08:52:52.181Z,101391.38
2023-04-26T08:55:20.199Z,101381.66
2023-04-26T08:57:48.187Z,101383.47
2023-04-26T09:00:15.926Z,101381.66
2023-04-26T09:02:46.507Z,101384.34
2023-04-26T09:05:13.702Z,101383.47
2023-04-26T09:07:47.791Z,101383.47
2023-04-26T09:10:21.759Z,101377.19
2023-04-26T09:12:53.239Z,101377.19
2023-04-26T09:15:22.674Z,101386.03
2023-04-26T09:17:49.917Z,101373.66
2023-04-26T09:20:21.653Z,101371.09
2023-04-26T09:22:49.857Z,101370.38
2023-04-26T09:25:18.483Z,101374.94
2023-04-26T09:27:45.818Z,101372.25
2023-04-26T09:30:17.273Z,101382.84
2023-04-26T09:32:56.538Z,101385.19
2023-04-26T09:35:36.862Z,101385.06
2023-04-26T09:38:14.111Z,101373.38
2023-04-26T09:40:48.920Z,101373.38
2023-04-26T09:43:19.915Z,101373.44
2023-04-26T09:45:57.767Z,101368.13
2023-04-26T09:48:30.612Z,101375.25
2023-04-26T09:50:59.009Z,101373.88
2023-04-26T09:53:29.013Z,101379.34
2023-04-26T09:55:57.286Z,101376.44
2023-04-26T09:58:23.890Z,101379.22
2023-04-26T10:00:51.982Z,101379.22
2023-04-26T10:03:23.125Z,101386.56
2023-04-26T10:05:49.806Z,101372.25
2023-04-26T10:08:16.496Z,101376.84
2023-04-26T10:10:43.850Z,101375.25
2023-04-26T10:13:11.557Z,101365.34
2023-04-26T10:15:39.639Z,101373.13
2023-04-26T10:18:06.214Z,101369.19
2023-04-26T10:20:32.586Z,101383.59
2023-04-26T10:23:01.492Z,101378.88
2023-04-26T10:25:39.174Z,101389.38
2023-04-26T10:28:10.735Z,101386.47
2023-04-26T10:30:55.670Z,101396.19
2023-04-26T10:33:23.805Z,101387.31
2023-04-26T10:36:04.060Z,101392.66
2023-04-26T10:38:31.349Z,101395.31
2023-04-26T10:41:38.446Z,101392.56
2023-04-26T10:44:40.632Z,101389.03
2023-04-26T10:47:20.675Z,101384.56
2023-04-26T10:49:48.135Z,101381.69
2023-04-26T10:52:16.770Z,101378.81
2023-04-26T10:54:57.166Z,101380.28
2023-04-26T10:57:43.169Z,101396.19
2023-04-26T11:00:17.119Z,101401.31
2023-04-26T11:02:52.366Z,101395.25
2023-04-26T11:05:53.990Z,101395.34
2023-04-26T11:08:24.824Z,101408.56
2023-04-26T11:10:57.458Z,101402.16
2023-04-26T11:13:26.996Z,101399.38
2023-04-26T11:15:55.054Z,101403.69
2023-04-26T11:18:22.182Z,101396.41
2023-04-26T11:20:48.867Z,101398.22
2023-04-26T11:23:17.758Z,101399.09
2023-04-26T11:25:44.223Z,101399.94
2023-04-26T11:28:12.009Z,101402.72
2023-04-26T11:30:38.382Z,101403.75
2023-04-26T11:33:05.221Z,101403.00
2023-04-26T11:35:35.916Z,101399.59
2023-04-26T11:38:05.405Z,101401.44
2023-04-26T11:40:33.429Z,101398.88
2023-04-26T11:43:06.645Z,101393.63
2023-04-26T11:45:34.904Z,101398.31
2023-04-26T11:48:03.271Z,101394.06
2023-04-26T11:50:32.100Z,101400.44
2023-04-26T11:53:00.974Z,101401.00
2023-04-26T11:55:28.501Z,101395.09
2023-04-26T11:57:55.347Z,101405.09
2023-04-26T12:00:22.256Z,101395.22
2023-04-26T12:02:49.456Z,101397.56
2023-04-26T12:05:25.573Z,101405.25
2023-04-26T12:07:57.202Z,101404.06
2023-04-26T12:10:29.147Z,101403.75
2023-04-26T12:12:58.511Z,101411.53
2023-04-26T12:15:38.770Z,101413.16
2023-04-26T12:18:10.654Z,101405.06
2023-04-26T12:20:43.519Z,101404.84
2023-04-26T12:23:15.425Z,101410.06
2023-04-26T12:25:52.469Z,101410.81
2023-04-26T12:28:19.042Z,101413.38
2023-04-26T12:30:45.415Z,101417.75
2023-04-26T12:33:17.762Z,101406.97
2023-04-26T12:35:44.659Z,101398.00
2023-04-26T12:38:12.310Z,101406.13
2023-04-26T12:40:39.085Z,101397.25
2023-04-26T12:43:05.457Z,101408.78
2023-04-26T12:45:31.911Z,101405.03
2023-04-26T12:47:58.360Z,101420.75
2023-04-26T12:50:24.867Z,101415.28
2023-04-26T12:52:51.493Z,101423.41
2023-04-26T12:55:18.580Z,101424.25
2023-04-26T12:57:45.880Z,101431.53
2023-04-26T13:00:14.413Z,101430.69
2023-04-26T13:02:41.614Z,101432.50
2023-04-26T13:05:09.261Z,101445.91
2023-04-26T13:07:37.775Z,101432.69
2023-04-26T13:10:05.074Z,101430.25
2023-04-26T13:12:31.828Z,101430.44
2023-04-26T13:14:58.198Z,101436.84
2023-04-26T13:17:25.794Z,101438.88
2023-04-26T13:19:52.937Z,101429.34
2023-04-26T13:22:20.876Z,101433.84
2023-04-26T13:24:47.528Z,101431.84
2023-04-26T13:27:14.066Z,101426.16
2023-04-26T13:29:41.030Z,101443.69
2023-04-26T13:32:08.244Z,101439.84
2023-04-26T13:34:35.666Z,101445.91
2023-04-26T13:37:03.831Z,101441.44
2023-04-26T13:39:31.128Z,101448.38
2023-04-26T13:41:59.486Z,101435.91
2023-04-26T13:44:26.894Z,101434.09
2023-04-26T13:46:55.361Z,101445.84
2023-04-26T13:49:22.858Z,101452.09
2023-04-26T13:51:49.289Z,101457.53
2023-04-26T13:54:15.676Z,101449.75
2023-04-26T13:56:42.048Z,101451.69
2023-04-26T13:59:08.425Z,101451.75
2023-04-26T14:01:36.071Z,101453.59
2023-04-26T14:04:04.383Z,101464.19
2023-04-26T14:06:32.541Z,101464.06
2023-04-26T14:08:59.349Z,101466.63
2023-04-26T14:11:25.961Z,101455.84
2023-04-26T14:13:55.981Z,101457.34
2023-04-26T14:16:23.584Z,101476.03
2023-04-26T14:18:50.211Z,101478.69
2023-04-26T14:21:16.706Z,101477.84
2023-04-26T14:23:43.098Z,101481.34
2023-04-26T14:26:10.608Z,101476.97
2023-04-26T14:28:37.035Z,101477.84
2023-04-26T14:31:03.579Z,101478.59
2023-04-26T14:33:29.973Z,101470.59
2023-04-26T14:35:56.445Z,101476.78
2023-04-26T14:38:22.856Z,101471.44
2023-04-26T14:40:49.231Z,101469.50
2023-04-26T14:43:15.806Z,101475.59
2023-04-26T14:45:44.558Z,101470.13
2023-04-26T14:48:12.320Z,101467.91
2023-04-26T14:50:38.897Z,101474.44
2023-04-26T14:53:05.318Z,101480.88
2023-04-26T14:55:32.325Z,101470.59
2023-04-26T14:57:58.937Z,101483.41
2023-04-26T15:00:26.014Z,101486.50
2023-04-26T15:02:52.584Z,101489.91
2023-04-26T15:05:24.127Z,101487.06
2023-04-26T15:07:51.720Z,101484.03
2023-04-26T15:10:18.074Z,101491.94
2023-04-26T15:12:44.617Z,101490.66
2023-04-26T15:15:11.435Z,101491.31
2023-04-26T15:17:37.877Z,101485.84
2023-04-26T15:20:06.225Z,101487.56
2023-04-26T15:22:34.840Z,101492.66
2023-04-26T15:25:03.153Z,101490.00
2023-04-26T15:27:29.545Z,101493.53
2023-04-26T15:29:56.673Z,101485.31
2023-04-26T15:32:23.044Z,101483.38
2023-04-26T15:34:49.736Z,101493.09
2023-04-26T15:37:16.126Z,101493.81
2023-04-26T15:39:42.604Z,101486.66
2023-04-26T15:42:09.006Z,101488.31
2023-04-26T15:44:35.617Z,101487.22
2023-04-26T15:47:02.424Z,101495.84
2023-04-26T15:49:28.984Z,101495.78
2023-04-26T15:51:55.432Z,101496.41
2023-04-26T15:54:22.121Z,101503.31
2023-04-26T15:56:48.662Z,101494.25
2023-04-26T15:59:15.221Z,101505.44
2023-04-26T16:01:41.668Z,101497.09
2023-04-26T16:04:08.865Z,101504.88
2023-04-26T16:06:35.616Z,101503.72
2023-04-26T16:09:17.189Z,101499.09
2023-04-26T16:11:50.308Z,101499.81
2023-04-26T16:14:16.687Z,101507.00
2023-04-26T16:16:44.329Z,101507.00
2023-04-26T16:19:10.821Z,101507.13
2023-04-26T16:21:39.566Z,101507.13
2023-04-26T16:24:08.717Z,101512.47
2023-04-26T16:26:35.351Z,101511.38
2023-04-26T16:29:01.789Z,101517.44
2023-04-26T16:31:28.218Z,101515.75
2023-04-26T16:33:54.777Z,101519.28
2023-04-26T16:36:21.309Z,101512.09
2023-04-26T16:38:47.680Z,101511.25
2023-04-26T16:41:14.026Z,101518.22
2023-04-26T16:43:40.565Z,101510.81
2023-04-26T16:46:08.017Z,101518.72
2023-04-26T16:48:36.426Z,101515.06
2023-04-26T16:51:07.113Z,101519.25
2023-04-26T16:53:34.445Z,101519.84
2023-04-26T16:56:00.922Z,101519.66
2023-04-26T16:58:27.421Z,101522.19
2023-04-26T17:01:00.154Z,101514.19
2023-04-26T17:03:27.058Z,101520.38
2023-04-26T17:05:53.636Z,101523.16
2023-04-26T17:08:20.062Z,101520.38
2023-04-26T17:10:46.968Z,101528.41
2023-04-26T17:13:13.597Z,101515.75
2023-04-26T17:15:41.291Z,101525.59
2023-04-26T17:18:08.964Z,101528.16
2023-04-26T17:20:35.949Z,101532.53
2023-04-26T17:23:04.175Z,101533.41
2023-04-26T17:25:31.187Z,101537.81
2023-04-26T17:27:57.692Z,101529.88
2023-04-26T17:30:24.206Z,101528.94
2023-04-26T17:32:50.713Z,101535.13
2023-04-26T17:35:17.208Z,101540.47
2023-04-26T17:37:46.114Z,101535.13
2023-04-26T17:40:12.892Z,101538.66
2023-04-26T17:42:39.291Z,101540.56
2023-04-26T17:45:06.685Z,101542.28
2023-04-26T17:47:33.344Z,101536.94
2023-04-26T17:49:59.840Z,101549.34
2023-04-26T17:52:26.811Z,101544.97
2023-04-26T17:54:54.382Z,101541.44
2023-04-26T17:57:22.978Z,101540.47
2023-04-26T17:59:53.242Z,101548.59
2023-04-26T18:02:19.767Z,101552.13
2023-04-26T18:04:49.095Z,101553.09
2023-04-26T18:07:15.995Z,101554.91
2023-04-26T18:09:42.406Z,101559.41
2023-04-26T18:12:09.074Z,101559.53
2023-04-26T18:14:35.575Z,101557.69
2023-04-26T18:17:03.771Z,101562.06
2023-04-26T18:19:30.729Z,101564.75
2023-04-26T18:21:57.096Z,101562.06
2023-04-26T18:24:23.539Z,101560.38
2023-04-26T18:26:49.906Z,101563.91
2023-04-26T18:29:16.355Z,101560.38
2023-04-26T18:31:42.773Z,101571.91
2023-04-26T18:34:11.294Z,101566.69
2023-04-26T18:36:37.798Z,101564.03
2023-04-26T18:39:04.589Z,101564.03
2023-04-26T18:41:30.975Z,101577.38
2023-04-26T18:43:57.353Z,101571.19
2023-04-26T18:46:23.815Z,101574.72
2023-04-26T18:48:50.220Z,101575.56
2023-04-26T18:51:16.646Z,101576.53
2023-04-26T18:53:43.042Z,101582.84
2023-04-26T18:56:09.468Z,101577.50
2023-04-26T18:58:36.614Z,101573.97
2023-04-26T19:01:03.064Z,101587.34
2023-04-26T19:03:29.529Z,101574.94
2023-04-26T19:05:55.942Z,101585.66
2023-04-26T19:08:22.291Z,101574.94
2023-04-26T19:10:48.848Z,101590.16
2023-04-26T19:13:15.406Z,101590.16
2023-04-26T19:15:41.817Z,101592.81
2023-04-26T19:18:08.395Z,101593.66
2023-04-26T19:20:35.203Z,101600.00
2023-04-26T19:23:01.653Z,101601.78
2023-04-26T19:25:30.337Z,101599.22
2023-04-26T19:27:56.907Z,101599.34
2023-04-26T19:30:23.315Z,101604.69
2023-04-26T19:32:49.759Z,101602.88
2023-04-26T19:35:16.149Z,101599.34
2023-04-26T19:37:42.502Z,101607.13
2023-04-26T19:40:10.142Z,101606.19
2023-04-26T19:42:36.520Z,101608.75
2023-04-26T19:45:03.043Z,101612.16
2023-04-26T19:47:29.470Z,101612.03
2023-04-26T19:49:57.588Z,101611.84
2023-04-26T19:52:23.997Z,101618.75
2023-04-26T19:54:55.734Z,101620.38
2023-04-26T19:57:22.553Z,101615.88
2023-04-26T19:59:48.926Z,101618.56
2023-04-26T20:02:15.389Z,101621.13
2023-04-26T20:04:42.664Z,101628.22
2023-04-26T20:07:09.167Z,101621.03
2023-04-26T20:09:35.820Z,101628.09
2023-04-26T20:12:02.197Z,101612.03
2023-04-26T20:14:30.149Z,101620.91
2023-04-26T20:16:56.612Z,101623.47
2023-04-26T20:19:23.393Z,101623.34
2023-04-26T20:21:49.821Z,101622.50
2023-04-26T20:24:16.311Z,101621.66
2023-04-26T20:26:42.725Z,101620.69
2023-04-26T20:29:09.400Z,101629.69
2023-04-26T20:31:36.155Z,101627.84
2023-04-26T20:34:02.636Z,101626.16
2023-04-26T20:36:29.034Z,101624.31
2023-04-26T20:38:55.821Z,101619.81
2023-04-26T20:41:22.207Z,101625.28
2023-04-26T20:43:49.086Z,101624.31
2023-04-26T20:46:16.181Z,101631.50
2023-04-26T20:48:42.579Z,101627.97
2023-04-26T20:51:08.960Z,101625.19
2023-04-26T20:53:35.319Z,101618.75
2023-04-26T20:56:01.679Z,101627.72
2023-04-26T20:58:29.646Z,101629.34
2023-04-26T21:00:56.027Z,101625.59
2023-04-26T21:03:22.563Z,101624.50
2023-04-26T21:05:49.255Z,101633.25
2023-04-26T21:08:15.666Z,101634.03
2023-04-26T21:10:42.016Z,101640.22
2023-04-26T21:13:09.226Z,101642.78
2023-04-26T21:15:35.705Z,101640.09
2023-04-26T21:18:02.945Z,101640.84
2023-04-26T21:20:29.385Z,101640.84
2023-04-26T21:22:55.893Z,101639.88
2023-04-26T21:25:22.681Z,101637.19
2023-04-26T21:27:51.137Z,101640.84
2023-04-26T21:30:17.756Z,101640.72
2023-04-26T21:32:44.162Z,101639.88
2023-04-26T21:35:13.372Z,101645.97
2023-04-26T21:37:39.730Z,101643.19
2023-04-26T21:40:07.953Z,101646.59
2023-04-26T21:42:34.437Z,101645.50
2023-04-26T21:45:00.856Z,101643.69
2023-04-26T21:47:27.511Z,101652.69
2023-04-26T21:49:53.878Z,101658.28
2023-04-26T21:52:20.650Z,101655.47
2023-04-26T21:54:47.051Z,101651.09
2023-04-26T21:57:13.457Z,101650.25
2023-04-26T21:59:42.105Z,101653.91
2023-04-26T22:02:08.614Z,101647.69
2023-04-26T22:04:35.045Z,101660.22
2023-04-26T22:07:01.404Z,101658.28
2023-04-26T22:09:27.765Z,101649.41
2023-04-26T22:11:54.155Z,101657.41
2023-04-26T22:14:20.945Z,101656.44
2023-04-26T22:16:47.401Z,101653.78
2023-04-26T22:19:14.237Z,101659.84
2023-04-26T22:21:40.996Z,101656.31
2023-04-26T22:24:07.764Z,101657.31
2023-04-26T22:26:34.354Z,101653.53
2023-04-26T22:29:00.913Z,101654.31
2023-04-26T22:31:27.302Z,101659.66
2023-04-26T22:33:53.754Z,101662.41
2023-04-26T22:36:20.699Z,101662.41
2023-04-26T22:38:47.109Z,101664.25
2023-04-26T22:41:13.486Z,101665.22
2023-04-26T22:43:41.476Z,101661.69
2023-04-26T22:46:08.015Z,101664.34
2023-04-26T22:48:34.409Z,101658.03
2023-04-26T22:51:00.859Z,101654.38
2023-04-26T22:53:27.455Z,101658.88
2023-04-26T22:55:53.801Z,101657.06
2023-04-26T22:58:23.782Z,101660.50
2023-04-26T23:00:50.247Z,101663.06
2023-04-26T23:03:16.943Z,101660.38
2023-04-26T23:05:43.493Z,101667.56
2023-04-26T23:08:09.848Z,101660.50
2023-04-26T23:10:36.195Z,101671.94
2023-04-26T23:13:02.577Z,101666.47
2023-04-26T23:15:28.943Z,101675.22
2023-04-26T23:17:55.390Z,101679.72
2023-04-26T23:20:22.625Z,101667.44
2023-04-26T23:22:49.026Z,101675.06
2023-04-26T23:25:15.375Z,101671.88
2023-04-26T23:27:42.106Z,101670.63
2023-04-26T23:30:08.988Z,101673.00
2023-04-26T23:32:35.524Z,101672.50
2023-04-26T23:35:01.894Z,101666.53
2023-04-26T23:37:29.002Z,101677.22
2023-04-26T23:39:55.586Z,101672.28
2023-04-26T23:42:22.102Z,101685.44
2023-04-26T23:44:48.462Z,101679.97
2023-04-26T23:47:14.970Z,101680.09
2023-04-26T23:49:41.350Z,101683.31
2023-04-26T23:52:07.777Z,101675.84
2023-04-26T23:54:34.222Z,101678.81
2023-04-26T23:57:00.953Z,101680.44
2023-04-26T23:59:27.517Z,101678.31
